createdAt,value
2023-08-10T00:00:17.982Z,2.97
2023-08-10T00:03:05.727Z,2.78
2023-08-10T00:05:53.353Z,2.70
2023-08-10T00:08:40.649Z,2.50
2023-08-10T00:11:27.967Z,3.00
2023-08-10T00:14:15.269Z,2.92
2023-08-10T00:17:02.500Z,2.55
2023-08-10T00:19:50.864Z,2.80
2023-08-10T00:22:40.108Z,2.78
2023-08-10T00:25:27.410Z,2.75
2023-08-10T00:28:14.920Z,2.80
2023-08-10T00:31:02.188Z,3.00
2023-08-10T00:33:49.504Z,2.92
2023-08-10T00:36:37.416Z,2.85
2023-08-10T00:39:25.245Z,2.90
2023-08-10T00:42:14.077Z,3.05
2023-08-10T00:45:01.328Z,3.17
2023-08-10T00:47:48.613Z,3.58
2023-08-10T00:50:35.845Z,3.33
2023-08-10T00:53:23.342Z,3.28
2023-08-10T00:56:12.270Z,2.92
2023-08-10T00:58:59.492Z,3.17
2023-08-10T01:01:46.983Z,3.40
2023-08-10T01:04:35.104Z,3.10
2023-08-10T01:07:44.237Z,3.35
2023-08-10T01:10:41.111Z,3.45
2023-08-10T01:13:53.638Z,3.40
2023-08-10T01:16:43.071Z,3.22
2023-08-10T01:19:39.726Z,3.13
2023-08-10T01:22:46.623Z,2.85
2023-08-10T01:25:34.374Z,2.92
2023-08-10T01:28:24.025Z,3.90
2023-08-10T01:31:11.843Z,3.20
2023-08-10T01:33:59.082Z,3.00
2023-08-10T01:36:46.270Z,3.10
2023-08-10T01:39:33.525Z,3.35
2023-08-10T01:42:20.954Z,3.58
2023-08-10T01:45:09.146Z,3.40
2023-08-10T01:48:03.773Z,3.33
2023-08-10T01:50:53.601Z,3.10
2023-08-10T01:53:41.904Z,3.15
2023-08-10T01:56:29.240Z,3.13
2023-08-10T01:59:16.662Z,3.25
2023-08-10T02:02:04.133Z,3.22
2023-08-10T02:04:52.345Z,3.30
2023-08-10T02:07:40.148Z,3.42
2023-08-10T02:10:27.450Z,3.60
2023-08-10T02:13:15.107Z,3.17
2023-08-10T02:16:02.882Z,3.00
2023-08-10T02:18:50.231Z,2.95
2023-08-10T02:21:38.624Z,3.22
2023-08-10T02:24:25.948Z,3.60
2023-08-10T02:27:13.270Z,3.10
2023-08-10T02:30:00.687Z,3.67
2023-08-10T02:32:48.351Z,3.28
2023-08-10T02:35:35.614Z,3.00
2023-08-10T02:38:22.941Z,3.10
2023-08-10T02:41:11.008Z,3.67
2023-08-10T02:43:58.374Z,2.70
2023-08-10T02:46:45.607Z,3.20
2023-08-10T02:49:33.346Z,3.08
2023-08-10T02:52:20.750Z,3.22
2023-08-10T02:55:09.252Z,3.10
2023-08-10T02:57:57.850Z,3.22
2023-08-10T03:00:45.085Z,3.00
2023-08-10T03:03:33.189Z,3.55
2023-08-10T03:06:20.539Z,3.42
2023-08-10T03:09:08.141Z,3.70
2023-08-10T03:11:55.611Z,3.45
2023-08-10T03:14:44.892Z,3.60
2023-08-10T03:17:32.886Z,3.75
2023-08-10T03:20:20.181Z,4.00
2023-08-10T03:23:08.475Z,3.50
2023-08-10T03:25:56.697Z,3.53
2023-08-10T03:28:44.111Z,3.47
2023-08-10T03:31:31.570Z,3.20
2023-08-10T03:34:19.268Z,3.50
2023-08-10T03:37:06.466Z,3.10
2023-08-10T03:39:54.388Z,3.70
2023-08-10T03:42:42.136Z,3.92
2023-08-10T03:45:30.336Z,3.70
2023-08-10T03:48:18.577Z,3.75
2023-08-10T03:51:06.252Z,4.00
2023-08-10T03:53:54.783Z,4.07
2023-08-10T03:56:42.229Z,3.30
2023-08-10T03:59:29.503Z,3.35
2023-08-10T04:02:17.014Z,3.78
2023-08-10T04:05:07.450Z,3.38
2023-08-10T04:07:54.984Z,3.78
2023-08-10T04:10:42.573Z,3.97
2023-08-10T04:13:29.779Z,4.90
2023-08-10T04:16:18.177Z,4.20
2023-08-10T04:19:05.653Z,4.63
2023-08-10T04:21:53.280Z,4.78
2023-08-10T04:24:40.542Z,3.50
2023-08-10T04:27:29.512Z,4.07
2023-08-10T04:30:17.846Z,3.60
2023-08-10T04:33:05.739Z,4.53
2023-08-10T04:35:53.922Z,4.30
2023-08-10T04:38:41.206Z,4.78
2023-08-10T04:41:28.430Z,4.50
2023-08-10T04:44:15.613Z,4.85
2023-08-10T04:47:03.595Z,4.30
2023-08-10T04:49:50.917Z,4.25
2023-08-10T04:52:38.617Z,4.30
2023-08-10T04:55:26.824Z,4.68
2023-08-10T04:58:14.200Z,4.20
2023-08-10T05:01:03.635Z,4.25
2023-08-10T05:03:51.195Z,4.80
2023-08-10T05:06:38.445Z,4.78
2023-08-10T05:09:28.735Z,4.95
2023-08-10T05:12:19.538Z,4.63
2023-08-10T05:15:07.412Z,4.30
2023-08-10T05:17:54.615Z,4.07
2023-08-10T05:20:42.168Z,4.43
2023-08-10T05:23:29.527Z,4.18
2023-08-10T05:26:16.763Z,4.13
2023-08-10T05:29:04.199Z,3.30
2023-08-10T05:31:51.551Z,3.38
2023-08-10T05:34:39.058Z,4.38
2023-08-10T05:37:26.418Z,4.30
2023-08-10T05:40:14.631Z,4.47
2023-08-10T05:43:02.460Z,3.90
2023-08-10T05:45:50.033Z,3.72
2023-08-10T05:48:37.425Z,3.50
2023-08-10T05:51:24.691Z,3.30
2023-08-10T05:54:12.096Z,3.30
2023-08-10T05:57:00.552Z,2.80
2023-08-10T05:59:48.181Z,2.85
2023-08-10T06:02:35.497Z,2.47
2023-08-10T06:05:23.218Z,2.40
2023-08-10T06:08:10.863Z,2.50
2023-08-10T06:10:58.072Z,2.80
2023-08-10T06:13:45.580Z,2.63
2023-08-10T06:16:33.074Z,2.50
2023-08-10T06:19:20.535Z,2.42
2023-08-10T06:22:08.043Z,2.05
2023-08-10T06:24:55.631Z,2.20
2023-08-10T06:27:43.271Z,2.10
2023-08-10T06:30:31.573Z,1.85
2023-08-10T06:33:18.924Z,1.90
2023-08-10T06:36:08.154Z,2.10
2023-08-10T06:38:55.611Z,1.80
2023-08-10T06:41:43.845Z,1.52
2023-08-10T06:44:32.567Z,1.60
2023-08-10T06:47:19.970Z,1.67
2023-08-10T06:50:09.456Z,1.80
2023-08-10T06:52:56.818Z,1.40
2023-08-10T06:55:45.570Z,1.17
2023-08-10T06:59:19.318Z,1.40
2023-08-10T07:01:51.853Z,1.40
2023-08-10T07:04:40.723Z,1.20
2023-08-10T07:07:27.929Z,1.23
2023-08-10T07:10:15.601Z,1.33
2023-08-10T07:13:03.031Z,1.00
2023-08-10T07:15:50.220Z,1.20
2023-08-10T07:18:37.465Z,1.02
2023-08-10T07:21:24.968Z,1.30
2023-08-10T07:24:12.312Z,1.15
2023-08-10T07:26:59.667Z,1.30
2023-08-10T07:29:46.935Z,1.20
2023-08-10T07:32:34.233Z,1.20
2023-08-10T07:35:22.302Z,1.20
2023-08-10T07:38:10.295Z,1.30
2023-08-10T07:40:57.574Z,1.42
2023-08-10T07:43:44.992Z,1.30
2023-08-10T07:46:33.789Z,1.30
2023-08-10T07:49:21.385Z,1.13
2023-08-10T07:52:08.902Z,1.40
2023-08-10T07:54:56.128Z,1.33
2023-08-10T07:57:43.418Z,1.23
2023-08-10T08:00:30.758Z,1.20
2023-08-10T08:03:18.272Z,1.40
2023-08-10T08:06:05.886Z,1.63
2023-08-10T08:08:53.235Z,1.48
2023-08-10T08:11:40.959Z,1.58
2023-08-10T08:14:28.625Z,1.23
2023-08-10T08:17:15.910Z,1.40
2023-08-10T08:20:03.281Z,1.50
2023-08-10T08:22:50.641Z,1.23
2023-08-10T08:25:40.323Z,1.30
2023-08-10T08:28:28.296Z,1.20
2023-08-10T08:31:15.729Z,1.50
2023-08-10T08:34:02.948Z,1.50
2023-08-10T08:36:50.302Z,1.40
2023-08-10T08:39:37.549Z,1.35
2023-08-10T08:42:27.553Z,1.50
2023-08-10T08:45:15.352Z,1.40
2023-08-10T08:48:07.076Z,1.30
2023-08-10T08:50:55.252Z,1.40
2023-08-10T08:53:43.108Z,1.40
2023-08-10T08:56:32.851Z,1.48
2023-08-10T08:59:20.838Z,1.40
2023-08-10T09:02:17.879Z,1.23
2023-08-10T09:05:07.549Z,1.48
2023-08-10T09:07:54.876Z,1.60
2023-08-10T09:10:44.465Z,1.48
2023-08-10T09:13:32.022Z,1.40
2023-08-10T09:16:19.627Z,1.60
2023-08-10T09:19:12.485Z,1.70
2023-08-10T09:21:59.763Z,1.40
2023-08-10T09:24:47.080Z,1.63
2023-08-10T09:27:34.676Z,1.52
2023-08-10T09:30:22.259Z,1.30
2023-08-10T09:33:10.259Z,1.60
2023-08-10T09:36:06.128Z,1.50
2023-08-10T09:38:55.351Z,1.52
2023-08-10T09:41:42.746Z,1.55
2023-08-10T09:44:46.395Z,1.50
2023-08-10T09:47:39.248Z,1.50
2023-08-10T09:50:26.480Z,1.40
2023-08-10T09:53:14.269Z,1.52
2023-08-10T09:56:02.257Z,1.60
2023-08-10T09:58:49.758Z,1.40
2023-08-10T10:01:37.865Z,1.50
2023-08-10T10:04:28.465Z,1.58
2023-08-10T10:07:21.165Z,1.55
2023-08-10T10:10:13.790Z,1.40
2023-08-10T10:13:02.643Z,1.52
2023-08-10T10:15:51.309Z,1.45
2023-08-10T10:18:39.258Z,1.45
2023-08-10T10:21:26.828Z,1.48
2023-08-10T10:24:14.664Z,1.60
2023-08-10T10:27:12.583Z,1.70
2023-08-10T10:30:01.197Z,1.40
2023-08-10T10:32:52.972Z,1.50
2023-08-10T10:35:40.699Z,1.40
2023-08-10T10:38:28.040Z,1.50
2023-08-10T10:41:17.169Z,1.52
2023-08-10T10:44:05.699Z,1.70
2023-08-10T10:46:53.159Z,1.50
2023-08-10T10:49:54.028Z,1.65
2023-08-10T10:52:41.616Z,1.30
2023-08-10T10:55:39.457Z,1.50
2023-08-10T10:58:30.534Z,1.60
2023-08-10T11:01:22.240Z,1.55
2023-08-10T11:04:09.883Z,1.38
2023-08-10T11:07:01.180Z,1.60
2023-08-10T11:09:48.770Z,1.60
2023-08-10T11:12:39.145Z,1.65
2023-08-10T11:15:26.648Z,1.80
2023-08-10T11:18:14.163Z,1.75
2023-08-10T11:21:01.644Z,2.10
2023-08-10T11:23:49.160Z,1.90
2023-08-10T11:26:37.345Z,1.75
2023-08-10T11:29:24.860Z,2.00
2023-08-10T11:32:12.392Z,1.60
2023-08-10T11:34:59.970Z,1.70
2023-08-10T11:37:48.613Z,1.80
2023-08-10T11:40:36.614Z,1.60
2023-08-10T11:43:26.293Z,1.88
2023-08-10T11:46:17.297Z,1.70
2023-08-10T11:49:06.060Z,1.50
2023-08-10T11:51:54.176Z,1.83
2023-08-10T11:54:41.472Z,1.60
2023-08-10T11:57:37.875Z,1.52
2023-08-10T12:00:34.632Z,1.70
2023-08-10T12:03:33.696Z,1.77
2023-08-10T12:06:23.503Z,1.52
2023-08-10T12:09:12.387Z,1.73
2023-08-10T12:12:00.077Z,1.75
2023-08-10T12:14:49.031Z,1.60
2023-08-10T12:17:36.742Z,1.88
2023-08-10T12:20:27.359Z,1.48
2023-08-10T12:23:16.042Z,1.40
2023-08-10T12:26:03.315Z,2.00
2023-08-10T12:28:50.873Z,1.40
2023-08-10T12:31:38.332Z,1.83
2023-08-10T12:34:25.557Z,1.60
2023-08-10T12:37:12.861Z,1.45
2023-08-10T12:40:00.100Z,1.40
2023-08-10T12:42:48.394Z,1.60
2023-08-10T12:45:35.805Z,1.48
2023-08-10T12:48:23.468Z,1.55
2023-08-10T12:51:10.919Z,1.50
2023-08-10T12:53:58.499Z,1.67
2023-08-10T12:56:45.711Z,1.42
2023-08-10T12:59:33.086Z,1.60
2023-08-10T13:02:33.007Z,1.60
2023-08-10T13:05:21.569Z,1.50
2023-08-10T13:08:08.928Z,1.48
2023-08-10T13:10:56.241Z,1.67
2023-08-10T13:13:43.628Z,1.63
2023-08-10T13:16:30.988Z,1.50
2023-08-10T13:19:21.392Z,1.67
2023-08-10T13:22:09.168Z,1.65
2023-08-10T13:24:56.831Z,1.40
2023-08-10T13:27:44.186Z,1.30
2023-08-10T13:30:31.482Z,1.42
2023-08-10T13:33:19.086Z,1.50
2023-08-10T13:36:06.779Z,1.80
2023-08-10T13:38:54.155Z,1.55
2023-08-10T13:41:41.655Z,1.70
2023-08-10T13:44:29.419Z,1.60
2023-08-10T13:47:16.660Z,1.63
2023-08-10T13:50:04.393Z,1.60
2023-08-10T13:52:51.792Z,1.80
2023-08-10T13:55:39.015Z,1.88
2023-08-10T13:58:26.369Z,1.38
2023-08-10T14:01:13.952Z,1.60
2023-08-10T14:04:01.203Z,1.38
2023-08-10T14:06:49.377Z,1.60
2023-08-10T14:09:36.594Z,1.60
2023-08-10T14:12:24.148Z,1.60
2023-08-10T14:15:13.157Z,1.83
2023-08-10T14:18:00.676Z,1.80
2023-08-10T14:20:47.965Z,1.50
2023-08-10T14:23:35.173Z,1.50
2023-08-10T14:26:22.547Z,1.35
2023-08-10T14:29:10.688Z,1.52
2023-08-10T14:31:58.196Z,1.83
2023-08-10T14:34:45.480Z,1.70
2023-08-10T14:37:32.759Z,1.80
2023-08-10T14:40:20.216Z,1.50
2023-08-10T14:43:07.506Z,1.58
2023-08-10T14:45:54.701Z,1.60
2023-08-10T14:48:41.952Z,1.50
2023-08-10T14:51:30.790Z,1.60
2023-08-10T14:54:22.609Z,1.70
2023-08-10T14:57:10.023Z,1.40
2023-08-10T14:59:57.297Z,1.40
2023-08-10T15:02:46.381Z,1.60
2023-08-10T15:05:33.996Z,1.45
2023-08-10T15:08:21.309Z,1.60
2023-08-10T15:11:11.555Z,1.60
2023-08-10T15:16:46.027Z,1.60
2023-08-10T15:19:33.434Z,1.67
2023-08-10T15:22:20.681Z,1.67
2023-08-10T15:25:08.653Z,1.50
2023-08-10T15:27:55.908Z,1.77
2023-08-10T15:30:43.204Z,1.80
2023-08-10T15:33:33.005Z,1.48
2023-08-10T15:36:20.299Z,1.75
2023-08-10T15:39:07.575Z,1.70
2023-08-10T15:41:54.961Z,1.60
2023-08-10T15:44:42.151Z,1.60
2023-08-10T15:47:29.425Z,1.77
2023-08-10T15:50:16.793Z,1.70
2023-08-10T15:53:04.610Z,1.85
2023-08-10T15:55:51.998Z,1.70
2023-08-10T15:58:39.472Z,1.55
2023-08-10T16:01:27.524Z,1.73
2023-08-10T16:04:14.949Z,1.73
2023-08-10T16:07:02.493Z,1.80
2023-08-10T16:09:50.146Z,1.83
2023-08-10T16:12:37.767Z,1.52
2023-08-10T16:15:25.066Z,1.50
2023-08-10T16:18:12.346Z,1.70
2023-08-10T16:20:59.585Z,1.60
2023-08-10T16:23:47.428Z,1.98
2023-08-10T16:26:35.322Z,1.90
2023-08-10T16:29:22.571Z,1.80
2023-08-10T16:32:10.252Z,1.90
2023-08-10T16:34:58.041Z,2.22
2023-08-10T16:37:45.612Z,1.80
2023-08-10T16:40:32.875Z,1.90
2023-08-10T16:43:20.284Z,2.28
2023-08-10T16:46:07.686Z,1.92
2023-08-10T16:48:54.962Z,1.90
2023-08-10T16:51:42.392Z,1.80
2023-08-10T16:54:29.651Z,1.70
2023-08-10T16:57:17.440Z,1.80
2023-08-10T17:00:11.416Z,1.95
2023-08-10T17:02:58.755Z,2.20
2023-08-10T17:05:46.327Z,1.90
2023-08-10T17:08:33.645Z,1.90
2023-08-10T17:11:21.038Z,1.85
2023-08-10T17:14:08.388Z,2.10
2023-08-10T17:16:55.867Z,2.08
2023-08-10T17:19:43.241Z,2.10
2023-08-10T17:22:30.563Z,2.00
2023-08-10T17:25:18.164Z,1.90
2023-08-10T17:28:08.780Z,2.00
2023-08-10T17:30:57.293Z,1.98
2023-08-10T17:33:44.571Z,2.03
2023-08-10T17:36:32.182Z,1.73
2023-08-10T17:39:20.080Z,2.00
2023-08-10T17:42:07.620Z,2.50
2023-08-10T17:44:57.009Z,1.95
2023-08-10T17:47:44.583Z,2.00
2023-08-10T17:50:31.888Z,1.90
2023-08-10T17:53:19.174Z,2.00
2023-08-10T17:56:06.639Z,1.85
2023-08-10T17:58:54.129Z,2.00
2023-08-10T18:01:41.715Z,1.98
2023-08-10T18:04:29.331Z,2.00
2023-08-10T18:07:16.595Z,2.03
2023-08-10T18:10:04.606Z,2.08
2023-08-10T18:12:51.875Z,1.95
2023-08-10T18:15:39.145Z,1.95
2023-08-10T18:18:26.440Z,2.20
2023-08-10T18:21:13.666Z,2.17
2023-08-10T18:24:00.896Z,2.13
2023-08-10T18:26:49.342Z,2.05
2023-08-10T18:29:36.574Z,2.10
2023-08-10T18:32:23.911Z,1.83
2023-08-10T18:35:11.702Z,2.00
2023-08-10T18:37:58.980Z,2.35
2023-08-10T18:40:46.263Z,2.15
2023-08-10T18:43:33.673Z,2.30
2023-08-10T18:46:21.219Z,1.95
2023-08-10T18:49:09.009Z,2.55
2023-08-10T18:51:56.279Z,2.28
2023-08-10T18:54:43.528Z,2.78
2023-08-10T18:57:30.893Z,2.30
2023-08-10T19:00:19.506Z,2.10
2023-08-10T19:03:07.052Z,2.30
2023-08-10T19:05:54.338Z,2.42
2023-08-10T19:08:41.592Z,2.30
2023-08-10T19:11:30.445Z,2.20
2023-08-10T19:14:17.688Z,2.60
2023-08-10T19:17:05.103Z,2.33
2023-08-10T19:19:52.287Z,2.30
2023-08-10T19:22:39.572Z,2.20
2023-08-10T19:25:26.802Z,2.42
2023-08-10T19:28:14.156Z,2.28
2023-08-10T19:31:04.911Z,2.15
2023-08-10T19:33:54.455Z,2.25
2023-08-10T19:36:41.788Z,2.08
2023-08-10T19:39:31.137Z,2.35
2023-08-10T19:42:18.596Z,2.50
2023-08-10T19:45:06.744Z,2.60
2023-08-10T19:47:56.926Z,2.70
2023-08-10T19:50:44.532Z,2.67
2023-08-10T19:53:31.834Z,2.80
2023-08-10T19:56:19.068Z,2.60
2023-08-10T19:59:06.323Z,2.40
2023-08-10T20:01:54.122Z,2.60
2023-08-10T20:04:41.745Z,2.47
2023-08-10T20:07:29.144Z,2.40
2023-08-10T20:10:16.390Z,2.28
2023-08-10T20:13:04.200Z,2.03
2023-08-10T20:15:52.119Z,2.00
2023-08-10T20:18:39.380Z,2.15
2023-08-10T20:21:27.681Z,2.00
2023-08-10T20:24:15.625Z,2.42
2023-08-10T20:27:09.568Z,2.10
2023-08-10T20:29:58.264Z,2.10
2023-08-10T20:32:45.640Z,2.00
2023-08-10T20:35:33.756Z,2.00
2023-08-10T20:38:20.997Z,1.98
2023-08-10T20:41:08.669Z,1.90
2023-08-10T20:43:56.090Z,1.88
2023-08-10T20:46:43.581Z,1.88
2023-08-10T20:49:31.088Z,2.00
2023-08-10T20:52:18.400Z,1.98
2023-08-10T20:55:07.842Z,1.95
2023-08-10T20:57:55.063Z,2.00
2023-08-10T21:00:42.261Z,2.25
2023-08-10T21:03:31.317Z,1.77
2023-08-10T21:06:18.838Z,2.38
2023-08-10T21:09:08.049Z,2.17
2023-08-10T21:11:56.720Z,2.05
2023-08-10T21:14:44.139Z,1.90
2023-08-10T21:17:31.431Z,2.03
2023-08-10T21:20:19.436Z,1.85
2023-08-10T21:23:06.982Z,1.70
2023-08-10T21:25:54.602Z,1.80
2023-08-10T21:28:41.945Z,1.98
2023-08-10T21:31:29.295Z,1.67
2023-08-10T21:34:16.707Z,2.10
2023-08-10T21:37:05.083Z,1.85
2023-08-10T21:39:52.766Z,2.15
2023-08-10T21:42:40.569Z,1.95
2023-08-10T21:45:27.892Z,2.00
2023-08-10T21:48:15.523Z,2.10
2023-08-10T21:51:02.864Z,2.20
2023-08-10T21:53:50.904Z,2.50
2023-08-10T21:56:38.419Z,2.25
2023-08-10T21:59:25.749Z,2.00
2023-08-10T22:02:17.854Z,2.40
2023-08-10T22:05:06.103Z,2.25
2023-08-10T22:07:53.457Z,2.17
2023-08-10T22:10:40.873Z,2.20
2023-08-10T22:13:28.187Z,3.67
2023-08-10T22:16:15.585Z,3.13
2023-08-10T22:19:03.644Z,3.50
2023-08-10T22:21:50.849Z,4.80
2023-08-10T22:24:38.160Z,5.88
2023-08-10T22:27:25.579Z,5.80
2023-08-10T22:30:14.976Z,4.70
2023-08-10T22:33:03.313Z,3.90
2023-08-10T22:35:51.323Z,3.72
2023-08-10T22:38:38.561Z,3.10
2023-08-10T22:41:25.791Z,2.78
2023-08-10T22:44:13.302Z,2.22
2023-08-10T22:47:01.941Z,2.97
2023-08-10T22:49:49.212Z,2.50
2023-08-10T22:52:36.590Z,2.40
2023-08-10T22:55:24.211Z,2.42
2023-08-10T22:58:11.673Z,2.40
2023-08-10T23:01:00.011Z,2.90
2023-08-10T23:03:48.020Z,2.50
2023-08-10T23:06:35.231Z,2.20
2023-08-10T23:09:22.589Z,2.60
2023-08-10T23:12:10.106Z,2.50
2023-08-10T23:14:57.586Z,2.30
2023-08-10T23:17:45.204Z,2.42
2023-08-10T23:20:32.537Z,2.67
2023-08-10T23:23:20.307Z,2.75
2023-08-10T23:26:08.814Z,2.95
2023-08-10T23:28:56.000Z,2.75
2023-08-10T23:31:43.388Z,2.58
2023-08-10T23:34:31.202Z,2.60
2023-08-10T23:37:18.537Z,2.58
2023-08-10T23:40:10.536Z,2.92
2023-08-10T23:42:57.971Z,2.97
2023-08-10T23:45:46.050Z,2.60
2023-08-10T23:48:33.836Z,2.95
2023-08-10T23:51:21.097Z,3.25
2023-08-10T23:54:08.712Z,2.35
2023-08-10T23:56:55.915Z,2.90
2023-08-10T23:59:43.264Z,2.53
